sensor_id;sensor_type;location;lat;lon;timestamp;pressure;altitude;pressure_sealevel;temperature;humidity
85163;BME280;75527;48.526;9.158;2024-01-07T00:00:47;96524.66;;;3.94;86.35
85163;BME280;75527;48.526;9.158;2024-01-07T00:03:13;96537.91;;;4.04;86.00
85163;BME280;75527;48.526;9.158;2024-01-07T00:05:38;96537.31;;;4.02;85.32
85163;BME280;75527;48.526;9.158;2024-01-07T00:08:04;96516.72;;;3.89;85.55
85163;BME280;75527;48.526;9.158;2024-01-07T00:10:29;96547.41;;;4.10;85.86
85163;BME280;75527;48.526;9.158;2024-01-07T00:12:54;96519.88;;;3.91;86.03
85163;BME280;75527;48.526;9.158;2024-01-07T00:15:20;96536.31;;;4.03;84.72
85163;BME280;75527;48.526;9.158;2024-01-07T00:17:45;96540.28;;;4.06;85.63
85163;BME280;75527;48.526;9.158;2024-01-07T00:20:10;96534.16;;;4.00;84.79
85163;BME280;75527;48.526;9.158;2024-01-07T00:22:36;96545.59;;;4.11;86.01
85163;BME280;75527;48.526;9.158;2024-01-07T00:25:01;96541.56;;;4.03;85.03
85163;BME280;75527;48.526;9.158;2024-01-07T00:27:27;96548.53;;;4.14;85.77
85163;BME280;75527;48.526;9.158;2024-01-07T00:29:52;96531.88;;;4.04;85.12
85163;BME280;75527;48.526;9.158;2024-01-07T00:32:17;96529.72;;;4.01;85.60
85163;BME280;75527;48.526;9.158;2024-01-07T00:34:43;96528.84;;;3.95;85.09
85163;BME280;75527;48.526;9.158;2024-01-07T00:37:09;96551.28;;;4.08;85.09
85163;BME280;75527;48.526;9.158;2024-01-07T00:39:34;96533.63;;;3.98;85.39
85163;BME280;75527;48.526;9.158;2024-01-07T00:41:59;96521.72;;;3.90;86.20
85163;BME280;75527;48.526;9.158;2024-01-07T00:44:25;96502.88;;;3.88;84.80
85163;BME280;75527;48.526;9.158;2024-01-07T00:46:50;96529.34;;;4.09;84.44
85163;BME280;75527;48.526;9.158;2024-01-07T00:49:15;96523.78;;;4.05;84.14
85163;BME280;75527;48.526;9.158;2024-01-07T00:51:40;96534.31;;;4.10;84.72
85163;BME280;75527;48.526;9.158;2024-01-07T00:54:06;96536.00;;;4.00;84.80
85163;BME280;75527;48.526;9.158;2024-01-07T00:56:31;96532.66;;;4.04;85.55
85163;BME280;75527;48.526;9.158;2024-01-07T00:58:56;96528.31;;;4.10;85.65
85163;BME280;75527;48.526;9.158;2024-01-07T01:01:22;96539.56;;;4.10;84.85
85163;BME280;75527;48.526;9.158;2024-01-07T01:03:47;96538.69;;;4.05;85.56
85163;BME280;75527;48.526;9.158;2024-01-07T01:06:12;96536.88;;;4.05;86.12
85163;BME280;75527;48.526;9.158;2024-01-07T01:08:38;96547.09;;;4.07;84.97
85163;BME280;75527;48.526;9.158;2024-01-07T01:11:03;96530.44;;;3.96;85.79
85163;BME280;75527;48.526;9.158;2024-01-07T01:13:28;96513.94;;;3.79;85.23
85163;BME280;75527;48.526;9.158;2024-01-07T01:15:54;96549.88;;;4.00;85.50
85163;BME280;75527;48.526;9.158;2024-01-07T01:18:20;96546.53;;;3.88;85.38
85163;BME280;75527;48.526;9.158;2024-01-07T01:20:46;96507.97;;;3.66;86.05
85163;BME280;75527;48.526;9.158;2024-01-07T01:23:11;96550.03;;;3.94;85.26
85163;BME280;75527;48.526;9.158;2024-01-07T01:25:36;96540.91;;;3.96;85.22
85163;BME280;75527;48.526;9.158;2024-01-07T01:28:02;96552.63;;;3.94;85.73
85163;BME280;75527;48.526;9.158;2024-01-07T01:30:27;96559.28;;;4.01;86.36
85163;BME280;75527;48.526;9.158;2024-01-07T01:32:55;96550.72;;;3.89;86.57
85163;BME280;75527;48.526;9.158;2024-01-07T01:35:21;96562.31;;;3.93;86.09
85163;BME280;75527;48.526;9.158;2024-01-07T01:37:46;96541.75;;;3.85;86.60
85163;BME280;75527;48.526;9.158;2024-01-07T01:40:11;96526.84;;;3.69;86.65
85163;BME280;75527;48.526;9.158;2024-01-07T01:42:37;96539.75;;;3.75;87.42
85163;BME280;75527;48.526;9.158;2024-01-07T01:45:02;96558.00;;;3.87;87.60
85163;BME280;75527;48.526;9.158;2024-01-07T01:47:29;96561.97;;;3.89;87.12
85163;BME280;75527;48.526;9.158;2024-01-07T01:49:55;96556.75;;;3.89;87.27
85163;BME280;75527;48.526;9.158;2024-01-07T01:52:20;96531.13;;;3.75;86.93
85163;BME280;75527;48.526;9.158;2024-01-07T01:54:46;96543.84;;;3.83;87.02
85163;BME280;75527;48.526;9.158;2024-01-07T01:57:16;96547.63;;;3.92;86.13
85163;BME280;75527;48.526;9.158;2024-01-07T01:59:42;96541.31;;;3.88;86.41
85163;BME280;75527;48.526;9.158;2024-01-07T02:02:08;96530.34;;;3.91;85.71
85163;BME280;75527;48.526;9.158;2024-01-07T02:04:33;96532.34;;;3.84;86.87
85163;BME280;75527;48.526;9.158;2024-01-07T02:06:59;96557.72;;;4.00;86.25
85163;BME280;75527;48.526;9.158;2024-01-07T02:09:24;96559.78;;;3.98;87.15
85163;BME280;75527;48.526;9.158;2024-01-07T02:12:02;96555.56;;;3.97;86.42
85163;BME280;75527;48.526;9.158;2024-01-07T02:14:28;96539.78;;;3.92;86.30
85163;BME280;75527;48.526;9.158;2024-01-07T02:16:54;96565.31;;;4.02;86.09
85163;BME280;75527;48.526;9.158;2024-01-07T02:19:20;96544.47;;;3.90;86.54
85163;BME280;75527;48.526;9.158;2024-01-07T02:21:46;96519.38;;;3.77;86.16
85163;BME280;75527;48.526;9.158;2024-01-07T02:24:17;96562.69;;;4.02;85.47
85163;BME280;75527;48.526;9.158;2024-01-07T02:26:43;96514.97;;;3.78;86.36
85163;BME280;75527;48.526;9.158;2024-01-07T02:29:08;96549.88;;;4.00;86.30
85163;BME280;75527;48.526;9.158;2024-01-07T02:31:34;96560.56;;;3.99;87.14
85163;BME280;75527;48.526;9.158;2024-01-07T02:33:59;96535.75;;;3.84;86.48
85163;BME280;75527;48.526;9.158;2024-01-07T02:36:24;96560.78;;;3.97;86.95
85163;BME280;75527;48.526;9.158;2024-01-07T02:38:49;96564.28;;;4.03;85.92
85163;BME280;75527;48.526;9.158;2024-01-07T02:41:15;96543.44;;;3.91;86.92
85163;BME280;75527;48.526;9.158;2024-01-07T02:43:40;96546.22;;;4.01;86.43
85163;BME280;75527;48.526;9.158;2024-01-07T02:46:05;96547.56;;;4.04;85.71
85163;BME280;75527;48.526;9.158;2024-01-07T02:48:30;96566.25;;;4.12;86.53
85163;BME280;75527;48.526;9.158;2024-01-07T02:50:56;96566.75;;;4.09;86.90
85163;BME280;75527;48.526;9.158;2024-01-07T02:53:21;96544.09;;;3.98;85.64
85163;BME280;75527;48.526;9.158;2024-01-07T02:55:46;96551.16;;;4.14;86.38
85163;BME280;75527;48.526;9.158;2024-01-07T02:58:12;96548.13;;;4.06;85.37
85163;BME280;75527;48.526;9.158;2024-01-07T03:00:37;96558.97;;;3.98;85.77
85163;BME280;75527;48.526;9.158;2024-01-07T03:03:02;96530.75;;;3.83;86.14
85163;BME280;75527;48.526;9.158;2024-01-07T03:05:28;96571.03;;;3.99;87.31
85163;BME280;75527;48.526;9.158;2024-01-07T03:07:57;96544.91;;;3.87;87.01
85163;BME280;75527;48.526;9.158;2024-01-07T03:10:22;96567.13;;;4.01;86.35
85163;BME280;75527;48.526;9.158;2024-01-07T03:12:48;96548.19;;;3.94;85.94
85163;BME280;75527;48.526;9.158;2024-01-07T03:15:13;96563.47;;;4.02;85.69
85163;BME280;75527;48.526;9.158;2024-01-07T03:17:38;96559.28;;;4.01;85.04
85163;BME280;75527;48.526;9.158;2024-01-07T03:20:04;96552.63;;;3.94;84.98
85163;BME280;75527;48.526;9.158;2024-01-07T03:22:29;96555.34;;;3.99;85.79
85163;BME280;75527;48.526;9.158;2024-01-07T03:24:54;96551.13;;;3.98;85.91
85163;BME280;75527;48.526;9.158;2024-01-07T03:27:20;96551.19;;;3.86;85.72
85163;BME280;75527;48.526;9.158;2024-01-07T03:29:45;96545.00;;;3.92;85.09
85163;BME280;75527;48.526;9.158;2024-01-07T03:32:10;96580.78;;;4.03;85.04
85163;BME280;75527;48.526;9.158;2024-01-07T03:34:36;96579.66;;;3.99;85.14
85163;BME280;75527;48.526;9.158;2024-01-07T03:37:01;96572.53;;;3.95;85.93
85163;BME280;75527;48.526;9.158;2024-01-07T03:39:26;96579.66;;;3.99;85.44
85163;BME280;75527;48.526;9.158;2024-01-07T03:41:55;96555.97;;;3.89;85.47
85163;BME280;75527;48.526;9.158;2024-01-07T03:44:20;96567.47;;;3.88;85.58
85163;BME280;75527;48.526;9.158;2024-01-07T03:46:46;96567.13;;;3.84;86.47
85163;BME280;75527;48.526;9.158;2024-01-07T03:49:11;96581.41;;;3.94;86.58
85163;BME280;75527;48.526;9.158;2024-01-07T03:51:36;96577.75;;;3.95;85.60
85163;BME280;75527;48.526;9.158;2024-01-07T03:54:02;96587.09;;;3.90;85.36
85163;BME280;75527;48.526;9.158;2024-01-07T03:56:27;96567.66;;;3.86;85.58
85163;BME280;75527;48.526;9.158;2024-01-07T03:58:52;96585.44;;;4.01;85.45
85163;BME280;75527;48.526;9.158;2024-01-07T04:01:17;96587.13;;;4.07;84.27
85163;BME280;75527;48.526;9.158;2024-01-07T04:03:43;96583.63;;;4.02;84.67
85163;BME280;75527;48.526;9.158;2024-01-07T04:06:09;96588.78;;;3.97;85.32
85163;BME280;75527;48.526;9.158;2024-01-07T04:08:34;96572.34;;;3.84;85.35
85163;BME280;75527;48.526;9.158;2024-01-07T04:11:02;96592.97;;;3.98;84.30
85163;BME280;75527;48.526;9.158;2024-01-07T04:13:27;96590.50;;;3.91;85.75
85163;BME280;75527;48.526;9.158;2024-01-07T04:15:52;96581.53;;;3.87;85.70
85163;BME280;75527;48.526;9.158;2024-01-07T04:18:18;96591.53;;;3.90;85.71
85163;BME280;75527;48.526;9.158;2024-01-07T04:20:43;96569.91;;;3.78;85.51
85163;BME280;75527;48.526;9.158;2024-01-07T04:23:08;96603.03;;;3.89;86.24
85163;BME280;75527;48.526;9.158;2024-01-07T04:25:33;96593.03;;;3.86;85.11
85163;BME280;75527;48.526;9.158;2024-01-07T04:27:59;96606.78;;;3.93;84.85
85163;BME280;75527;48.526;9.158;2024-01-07T04:30:25;96594.41;;;3.88;84.88
85163;BME280;75527;48.526;9.158;2024-01-07T04:32:50;96598.97;;;3.81;85.48
85163;BME280;75527;48.526;9.158;2024-01-07T04:35:15;96596.25;;;3.76;85.55
85163;BME280;75527;48.526;9.158;2024-01-07T04:37:41;96590.09;;;3.82;84.98
85163;BME280;75527;48.526;9.158;2024-01-07T04:40:07;96591.28;;;3.75;85.85
85163;BME280;75527;48.526;9.158;2024-01-07T04:42:32;96600.34;;;3.84;85.05
85163;BME280;75527;48.526;9.158;2024-01-07T04:44:57;96587.53;;;3.71;83.94
85163;BME280;75527;48.526;9.158;2024-01-07T04:47:27;96608.63;;;3.81;84.77
85163;BME280;75527;48.526;9.158;2024-01-07T04:49:53;96597.09;;;3.65;84.19
85163;BME280;75527;48.526;9.158;2024-01-07T04:52:18;96614.34;;;3.78;84.58
85163;BME280;75527;48.526;9.158;2024-01-07T04:54:44;96605.63;;;3.72;84.28
85163;BME280;75527;48.526;9.158;2024-01-07T04:57:09;96588.44;;;3.48;84.76
85163;BME280;75527;48.526;9.158;2024-01-07T04:59:34;96619.69;;;3.71;83.71
85163;BME280;75527;48.526;9.158;2024-01-07T05:01:59;96620.03;;;3.75;85.17
85163;BME280;75527;48.526;9.158;2024-01-07T05:04:25;96626.75;;;3.71;84.83
85163;BME280;75527;48.526;9.158;2024-01-07T05:06:50;96621.44;;;3.65;83.73
85163;BME280;75527;48.526;9.158;2024-01-07T05:09:17;96606.13;;;3.57;83.90
85163;BME280;75527;48.526;9.158;2024-01-07T05:11:42;96628.13;;;3.73;83.52
85163;BME280;75527;48.526;9.158;2024-01-07T05:14:07;96630.50;;;3.75;84.04
85163;BME280;75527;48.526;9.158;2024-01-07T05:16:33;96610.78;;;3.55;83.84
85163;BME280;75527;48.526;9.158;2024-01-07T05:18:58;96611.84;;;3.43;84.01
85163;BME280;75527;48.526;9.158;2024-01-07T05:21:23;96627.25;;;3.56;83.99
85163;BME280;75527;48.526;9.158;2024-01-07T05:23:48;96637.69;;;3.68;82.67
85163;BME280;75527;48.526;9.158;2024-01-07T05:26:15;96630.06;;;3.66;83.47
85163;BME280;75527;48.526;9.158;2024-01-07T05:28:40;96617.13;;;3.59;83.49
85163;BME280;75527;48.526;9.158;2024-01-07T05:31:14;96634.75;;;3.64;82.74
85163;BME280;75527;48.526;9.158;2024-01-07T05:33:39;96624.22;;;3.47;83.61
85163;BME280;75527;48.526;9.158;2024-01-07T05:36:05;96623.19;;;3.48;83.17
85163;BME280;75527;48.526;9.158;2024-01-07T05:38:30;96626.25;;;3.45;83.81
85163;BME280;75527;48.526;9.158;2024-01-07T05:40:55;96649.19;;;3.55;83.88
85163;BME280;75527;48.526;9.158;2024-01-07T05:43:20;96648.84;;;3.63;83.63
85163;BME280;75527;48.526;9.158;2024-01-07T05:45:46;96622.25;;;3.54;83.64
85163;BME280;75527;48.526;9.158;2024-01-07T05:48:11;96645.44;;;3.62;83.60
85163;BME280;75527;48.526;9.158;2024-01-07T05:50:36;96655.19;;;3.67;83.33
85163;BME280;75527;48.526;9.158;2024-01-07T05:53:01;96652.50;;;3.62;82.92
85163;BME280;75527;48.526;9.158;2024-01-07T05:55:27;96656.91;;;3.61;84.17
85163;BME280;75527;48.526;9.158;2024-01-07T05:57:52;96642.97;;;3.44;84.26
85163;BME280;75527;48.526;9.158;2024-01-07T06:00:17;96662.25;;;3.55;83.46
85163;BME280;75527;48.526;9.158;2024-01-07T06:02:43;96663.75;;;3.62;84.51
85163;BME280;75527;48.526;9.158;2024-01-07T06:05:08;96645.47;;;3.39;84.49
85163;BME280;75527;48.526;9.158;2024-01-07T06:07:33;96667.63;;;3.48;84.44
85163;BME280;75527;48.526;9.158;2024-01-07T06:09:59;96631.06;;;3.25;84.30
85163;BME280;75527;48.526;9.158;2024-01-07T06:12:25;96651.06;;;3.43;83.56
85163;BME280;75527;48.526;9.158;2024-01-07T06:14:50;96672.59;;;3.61;82.73
85163;BME280;75527;48.526;9.158;2024-01-07T06:17:15;96662.19;;;3.38;84.37
85163;BME280;75527;48.526;9.158;2024-01-07T06:19:40;96674.31;;;3.56;83.27
85163;BME280;75527;48.526;9.158;2024-01-07T06:22:06;96651.16;;;3.36;83.17
85163;BME280;75527;48.526;9.158;2024-01-07T06:24:31;96680.56;;;3.55;83.72
85163;BME280;75527;48.526;9.158;2024-01-07T06:26:56;96647.09;;;3.28;83.87
85163;BME280;75527;48.526;9.158;2024-01-07T06:29:22;96677.63;;;3.39;84.43
85163;BME280;75527;48.526;9.158;2024-01-07T06:31:47;96663.66;;;3.34;82.76
85163;BME280;75527;48.526;9.158;2024-01-07T06:34:13;96653.00;;;3.24;83.56
85163;BME280;75527;48.526;9.158;2024-01-07T06:36:39;96681.28;;;3.38;83.43
85163;BME280;75527;48.526;9.158;2024-01-07T06:39:06;96664.00;;;3.37;84.42
85163;BME280;75527;48.526;9.158;2024-01-07T06:41:33;96683.22;;;3.43;83.34
85163;BME280;75527;48.526;9.158;2024-01-07T06:43:58;96677.66;;;3.28;84.34
85163;BME280;75527;48.526;9.158;2024-01-07T06:46:23;96699.13;;;3.42;83.79
85163;BME280;75527;48.526;9.158;2024-01-07T06:48:49;96696.81;;;3.45;83.60
85163;BME280;75527;48.526;9.158;2024-01-07T06:51:14;96697.84;;;3.44;83.94
85163;BME280;75527;48.526;9.158;2024-01-07T06:53:40;96705.69;;;3.44;83.16
85163;BME280;75527;48.526;9.158;2024-01-07T06:56:05;96682.34;;;3.26;84.11
85163;BME280;75527;48.526;9.158;2024-01-07T06:58:31;96689.47;;;3.19;83.10
85163;BME280;75527;48.526;9.158;2024-01-07T07:00:57;96710.47;;;3.35;83.18
85163;BME280;75527;48.526;9.158;2024-01-07T07:03:22;96655.41;;;3.02;84.23
85163;BME280;75527;48.526;9.158;2024-01-07T07:05:48;96706.63;;;3.26;83.72
85163;BME280;75527;48.526;9.158;2024-01-07T07:08:13;96691.41;;;3.23;84.33
85163;BME280;75527;48.526;9.158;2024-01-07T07:10:38;96712.66;;;3.27;84.13
85163;BME280;75527;48.526;9.158;2024-01-07T07:13:04;96704.13;;;3.20;83.84
85163;BME280;75527;48.526;9.158;2024-01-07T07:15:29;96718.31;;;3.24;84.94
85163;BME280;75527;48.526;9.158;2024-01-07T07:17:55;96729.34;;;3.37;85.24
85163;BME280;75527;48.526;9.158;2024-01-07T07:20:20;96712.31;;;3.23;85.12
85163;BME280;75527;48.526;9.158;2024-01-07T07:22:46;96720.25;;;3.28;84.75
85163;BME280;75527;48.526;9.158;2024-01-07T07:25:11;96720.25;;;3.28;85.48
85163;BME280;75527;48.526;9.158;2024-01-07T07:27:36;96734.34;;;3.27;84.43
85163;BME280;75527;48.526;9.158;2024-01-07T07:30:03;96745.81;;;3.38;85.12
85163;BME280;75527;48.526;9.158;2024-01-07T07:32:29;96742.84;;;3.46;85.06
85163;BME280;75527;48.526;9.158;2024-01-07T07:34:54;96749.22;;;3.38;84.79
85163;BME280;75527;48.526;9.158;2024-01-07T07:37:19;96737.53;;;3.29;84.50
85163;BME280;75527;48.526;9.158;2024-01-07T07:39:45;96688.22;;;2.98;84.87
85163;BME280;75527;48.526;9.158;2024-01-07T07:42:10;96748.22;;;3.28;85.57
85163;BME280;75527;48.526;9.158;2024-01-07T07:44:35;96749.34;;;3.32;84.36
85163;BME280;75527;48.526;9.158;2024-01-07T07:47:01;96759.13;;;3.36;84.98
85163;BME280;75527;48.526;9.158;2024-01-07T07:49:26;96760.34;;;3.34;83.78
85163;BME280;75527;48.526;9.158;2024-01-07T07:51:51;96740.13;;;3.29;83.83
85163;BME280;75527;48.526;9.158;2024-01-07T07:54:17;96754.00;;;3.30;83.60
85163;BME280;75527;48.526;9.158;2024-01-07T07:56:42;96762.41;;;3.32;83.10
85163;BME280;75527;48.526;9.158;2024-01-07T07:59:07;96739.34;;;3.17;83.47
85163;BME280;75527;48.526;9.158;2024-01-07T08:01:34;96728.09;;;3.17;83.58
85163;BME280;75527;48.526;9.158;2024-01-07T08:03:59;96759.69;;;3.27;84.55
85163;BME280;75527;48.526;9.158;2024-01-07T08:06:25;96744.69;;;3.22;83.71
85163;BME280;75527;48.526;9.158;2024-01-07T08:08:50;96760.13;;;3.35;83.30
85163;BME280;75527;48.526;9.158;2024-01-07T08:11:15;96771.84;;;3.33;83.87
85163;BME280;75527;48.526;9.158;2024-01-07T08:13:40;96773.97;;;3.36;82.48
85163;BME280;75527;48.526;9.158;2024-01-07T08:16:06;96770.94;;;3.27;83.35
85163;BME280;75527;48.526;9.158;2024-01-07T08:18:31;96758.97;;;3.20;84.15
85163;BME280;75527;48.526;9.158;2024-01-07T08:20:57;96760.00;;;3.19;83.29
85163;BME280;75527;48.526;9.158;2024-01-07T08:23:24;96783.53;;;3.30;83.97
85163;BME280;75527;48.526;9.158;2024-01-07T08:25:49;96778.09;;;3.32;83.60
85163;BME280;75527;48.526;9.158;2024-01-07T08:28:16;96780.25;;;3.23;83.64
85163;BME280;75527;48.526;9.158;2024-01-07T08:30:41;96785.47;;;3.23;83.33
85163;BME280;75527;48.526;9.158;2024-01-07T08:33:07;96793.31;;;3.35;82.78
85163;BME280;75527;48.526;9.158;2024-01-07T08:35:32;96791.38;;;3.19;83.76
85163;BME280;75527;48.526;9.158;2024-01-07T08:37:57;96800.59;;;3.33;82.64
85163;BME280;75527;48.526;9.158;2024-01-07T08:40:23;96782.06;;;3.23;83.20
85163;BME280;75527;48.526;9.158;2024-01-07T08:42:49;96780.22;;;3.11;83.81
85163;BME280;75527;48.526;9.158;2024-01-07T08:45:14;96777.63;;;3.11;83.30
85163;BME280;75527;48.526;9.158;2024-01-07T08:47:40;96806.72;;;3.27;83.40
85163;BME280;75527;48.526;9.158;2024-01-07T08:50:05;96794.19;;;3.05;83.23
85163;BME280;75527;48.526;9.158;2024-01-07T08:52:30;96820.44;;;3.10;83.00
85163;BME280;75527;48.526;9.158;2024-01-07T08:54:56;96803.03;;;2.93;84.33
85163;BME280;75527;48.526;9.158;2024-01-07T08:57:21;96814.63;;;2.97;84.05
85163;BME280;75527;48.526;9.158;2024-01-07T08:59:46;96831.56;;;3.06;83.97
85163;BME280;75527;48.526;9.158;2024-01-07T09:02:12;96834.50;;;3.09;84.22
85163;BME280;75527;48.526;9.158;2024-01-07T09:04:39;96820.50;;;2.92;83.78
85163;BME280;75527;48.526;9.158;2024-01-07T09:07:04;96805.03;;;2.79;83.67
85163;BME280;75527;48.526;9.158;2024-01-07T09:09:29;96841.66;;;3.02;82.00
85163;BME280;75527;48.526;9.158;2024-01-07T09:11:55;96838.47;;;3.00;81.85
85163;BME280;75527;48.526;9.158;2024-01-07T09:14:22;96845.41;;;3.06;82.74
85163;BME280;75527;48.526;9.158;2024-01-07T09:16:47;96827.84;;;2.83;81.57
85163;BME280;75527;48.526;9.158;2024-01-07T09:19:12;96834.59;;;2.91;81.73
85163;BME280;75527;48.526;9.158;2024-01-07T09:21:37;96836.59;;;2.89;81.78
85163;BME280;75527;48.526;9.158;2024-01-07T09:24:03;96840.25;;;2.88;80.18
85163;BME280;75527;48.526;9.158;2024-01-07T09:26:29;96845.97;;;2.97;82.02
85163;BME280;75527;48.526;9.158;2024-01-07T09:28:54;96863.38;;;3.14;79.01
85163;BME280;75527;48.526;9.158;2024-01-07T09:31:19;96864.13;;;3.03;80.52
85163;BME280;75527;48.526;9.158;2024-01-07T09:33:45;96853.25;;;3.06;78.57
85163;BME280;75527;48.526;9.158;2024-01-07T09:36:10;96859.50;;;3.05;78.13
85163;BME280;75527;48.526;9.158;2024-01-07T09:38:35;96864.59;;;3.00;77.85
85163;BME280;75527;48.526;9.158;2024-01-07T09:41:01;96848.44;;;2.92;78.24
85163;BME280;75527;48.526;9.158;2024-01-07T09:43:26;96858.00;;;3.09;77.11
85163;BME280;75527;48.526;9.158;2024-01-07T09:45:53;96843.00;;;2.93;77.13
85163;BME280;75527;48.526;9.158;2024-01-07T09:48:19;96835.47;;;2.85;77.17
85163;BME280;75527;48.526;9.158;2024-01-07T09:50:44;96807.50;;;2.74;77.87
85163;BME280;75527;48.526;9.158;2024-01-07T09:53:14;96856.97;;;2.99;78.34
85163;BME280;75527;48.526;9.158;2024-01-07T09:58:12;96851.75;;;2.99;77.52
85163;BME280;75527;48.526;9.158;2024-01-07T10:00:38;96843.72;;;3.00;77.05
85163;BME280;75527;48.526;9.158;2024-01-07T10:03:05;96861.88;;;3.07;77.11
85163;BME280;75527;48.526;9.158;2024-01-07T10:05:30;96876.03;;;2.99;77.39
85163;BME280;75527;48.526;9.158;2024-01-07T10:07:55;96849.50;;;2.72;77.22
85163;BME280;75527;48.526;9.158;2024-01-07T10:10:22;96872.03;;;2.85;78.39
85163;BME280;75527;48.526;9.158;2024-01-07T10:12:47;96862.25;;;2.80;77.29
85163;BME280;75527;48.526;9.158;2024-01-07T10:15:13;96855.38;;;2.68;78.20
85163;BME280;75527;48.526;9.158;2024-01-07T10:17:41;96861.22;;;2.81;78.71
85163;BME280;75527;48.526;9.158;2024-01-07T10:20:07;96877.53;;;2.95;77.64
85163;BME280;75527;48.526;9.158;2024-01-07T10:22:39;96867.91;;;2.77;78.09
85163;BME280;75527;48.526;9.158;2024-01-07T10:25:05;96858.34;;;2.71;77.38
85163;BME280;75527;48.526;9.158;2024-01-07T10:27:34;96878.72;;;2.81;75.61
85163;BME280;75527;48.526;9.158;2024-01-07T10:30:01;96877.28;;;2.67;77.37
85163;BME280;75527;48.526;9.158;2024-01-07T10:32:28;96879.66;;;2.68;77.16
85163;BME280;75527;48.526;9.158;2024-01-07T10:35:03;96865.78;;;2.56;77.88
85163;BME280;75527;48.526;9.158;2024-01-07T10:37:30;96851.66;;;2.45;77.66
85163;BME280;75527;48.526;9.158;2024-01-07T10:39:59;96870.06;;;2.50;76.76
85163;BME280;75527;48.526;9.158;2024-01-07T10:42:32;96887.59;;;2.61;76.80
85163;BME280;75527;48.526;9.158;2024-01-07T10:45:01;96872.03;;;2.37;77.13
85163;BME280;75527;48.526;9.158;2024-01-07T10:47:30;96857.78;;;2.39;75.62
85163;BME280;75527;48.526;9.158;2024-01-07T10:49:59;96878.31;;;2.47;77.36
85163;BME280;75527;48.526;9.158;2024-01-07T10:52:27;96864.56;;;2.40;76.77
85163;BME280;75527;48.526;9.158;2024-01-07T10:54:56;96870.16;;;2.44;77.04
85163;BME280;75527;48.526;9.158;2024-01-07T10:57:34;96879.81;;;2.43;76.28
85163;BME280;75527;48.526;9.158;2024-01-07T11:00:00;96896.03;;;2.45;76.02
85163;BME280;75527;48.526;9.158;2024-01-07T11:02:31;96893.19;;;2.47;77.34
85163;BME280;75527;48.526;9.158;2024-01-07T11:05:05;96871.56;;;2.28;76.95
85163;BME280;75527;48.526;9.158;2024-01-07T11:07:40;96901.66;;;2.42;77.44
85163;BME280;75527;48.526;9.158;2024-01-07T11:10:22;96898.63;;;2.45;76.29
85163;BME280;75527;48.526;9.158;2024-01-07T11:12:54;96897.63;;;2.46;77.43
85163;BME280;75527;48.526;9.158;2024-01-07T11:18:21;96885.31;;;2.35;76.43
85163;BME280;75527;48.526;9.158;2024-01-07T11:20:48;96883.56;;;2.29;77.15
85163;BME280;75527;48.526;9.158;2024-01-07T11:23:26;96866.69;;;2.13;77.49
85163;BME280;75527;48.526;9.158;2024-01-07T11:25:53;96894.94;;;2.34;76.35
85163;BME280;75527;48.526;9.158;2024-01-07T11:28:18;96879.94;;;2.30;76.38
85163;BME280;75527;48.526;9.158;2024-01-07T11:30:45;96881.38;;;2.26;77.19
85163;BME280;75527;48.526;9.158;2024-01-07T11:33:13;96905.16;;;2.36;76.06
85163;BME280;75527;48.526;9.158;2024-01-07T11:35:59;96898.06;;;2.25;77.37
85163;BME280;75527;48.526;9.158;2024-01-07T11:38:26;96900.09;;;2.23;76.61
85163;BME280;75527;48.526;9.158;2024-01-07T11:40:51;96898.47;;;2.22;76.87
85163;BME280;75527;48.526;9.158;2024-01-07T11:43:17;96896.09;;;2.20;77.72
85163;BME280;75527;48.526;9.158;2024-01-07T11:45:42;96882.25;;;2.01;75.82
85163;BME280;75527;48.526;9.158;2024-01-07T11:48:08;96901.97;;;2.16;76.22
85163;BME280;75527;48.526;9.158;2024-01-07T11:50:35;96899.44;;;2.09;76.04
85163;BME280;75527;48.526;9.158;2024-01-07T11:53:00;96901.63;;;2.12;75.67
85163;BME280;75527;48.526;9.158;2024-01-07T11:55:26;96883.72;;;2.16;75.23
85163;BME280;75527;48.526;9.158;2024-01-07T11:57:52;96866.25;;;1.98;75.12
85163;BME280;75527;48.526;9.158;2024-01-07T12:00:17;96885.44;;;2.03;74.66
85163;BME280;75527;48.526;9.158;2024-01-07T12:02:43;96909.28;;;2.07;76.05
85163;BME280;75527;48.526;9.158;2024-01-07T12:05:08;96880.88;;;1.99;75.31
85163;BME280;75527;48.526;9.158;2024-01-07T12:07:34;96894.59;;;2.13;75.30
85163;BME280;75527;48.526;9.158;2024-01-07T12:10:02;96912.53;;;2.21;74.54
85163;BME280;75527;48.526;9.158;2024-01-07T12:12:27;96902.59;;;2.11;74.66
85163;BME280;75527;48.526;9.158;2024-01-07T12:14:53;96897.63;;;2.09;74.66
85163;BME280;75527;48.526;9.158;2024-01-07T12:17:19;96909.75;;;2.22;74.31
85163;BME280;75527;48.526;9.158;2024-01-07T12:19:45;96911.38;;;2.17;74.43
85163;BME280;75527;48.526;9.158;2024-01-07T12:22:10;96913.41;;;2.15;75.37
85163;BME280;75527;48.526;9.158;2024-01-07T12:24:35;96893.53;;;1.95;75.36
85163;BME280;75527;48.526;9.158;2024-01-07T12:27:05;96900.78;;;1.93;74.99
85163;BME280;75527;48.526;9.158;2024-01-07T12:29:30;96904.72;;;2.02;76.64
85163;BME280;75527;48.526;9.158;2024-01-07T12:31:55;96897.53;;;1.98;74.34
85163;BME280;75527;48.526;9.158;2024-01-07T12:34:21;96910.78;;;1.96;75.62
85163;BME280;75527;48.526;9.158;2024-01-07T12:36:49;96917.53;;;2.04;74.82
85163;BME280;75527;48.526;9.158;2024-01-07T12:39:14;96914.66;;;2.12;75.42
85163;BME280;75527;48.526;9.158;2024-01-07T12:41:40;96916.59;;;2.17;75.14
85163;BME280;75527;48.526;9.158;2024-01-07T12:44:05;96902.47;;;2.06;74.80
85163;BME280;75527;48.526;9.158;2024-01-07T12:46:34;96907.91;;;2.04;74.47
85163;BME280;75527;48.526;9.158;2024-01-07T12:48:59;96902.53;;;1.99;74.52
85163;BME280;75527;48.526;9.158;2024-01-07T12:51:25;96891.09;;;2.00;74.48
85163;BME280;75527;48.526;9.158;2024-01-07T12:53:50;96922.03;;;2.15;73.93
85163;BME280;75527;48.526;9.158;2024-01-07T12:56:16;96921.97;;;2.03;74.54
85163;BME280;75527;48.526;9.158;2024-01-07T12:58:41;96869.47;;;1.75;73.04
85163;BME280;75527;48.526;9.158;2024-01-07T13:01:06;96894.47;;;1.82;73.08
85163;BME280;75527;48.526;9.158;2024-01-07T13:03:31;96924.47;;;1.92;73.71
85163;BME280;75527;48.526;9.158;2024-01-07T13:05:57;96889.84;;;1.60;73.47
85163;BME280;75527;48.526;9.158;2024-01-07T13:08:23;96910.59;;;1.73;73.85